createdAt,value
2023-05-11T00:02:03.317Z,15.22
2023-05-11T00:04:31.167Z,15.26
2023-05-11T00:06:58.909Z,15.19
2023-05-11T00:09:27.944Z,14.85
2023-05-11T00:11:55.635Z,14.76
2023-05-11T00:14:23.341Z,14.73
2023-05-11T00:16:51.169Z,14.78
2023-05-11T00:19:18.910Z,14.88
2023-05-11T00:21:46.660Z,14.88
2023-05-11T00:24:14.328Z,15.09
2023-05-11T00:26:43.469Z,15.20
2023-05-11T00:29:11.169Z,15.12
2023-05-11T00:31:39.052Z,15.20
2023-05-11T00:34:06.979Z,15.39
2023-05-11T00:36:34.852Z,14.94
2023-05-11T00:39:02.657Z,15.13
2023-05-11T00:41:30.455Z,15.20
2023-05-11T00:43:59.569Z,15.00
2023-05-11T00:46:28.615Z,15.09
2023-05-11T00:48:56.730Z,15.14
2023-05-11T00:51:24.484Z,14.58
2023-05-11T00:53:52.212Z,15.02
2023-05-11T00:56:20.221Z,14.94
2023-05-11T00:58:47.966Z,15.19
2023-05-11T01:01:18.673Z,14.88
2023-05-11T01:03:47.248Z,15.14
2023-05-11T01:06:20.815Z,15.11
2023-05-11T01:08:55.120Z,15.24
2023-05-11T01:11:31.635Z,15.07
2023-05-11T01:14:05.054Z,15.06
2023-05-11T01:16:36.359Z,14.98
2023-05-11T01:19:12.269Z,15.11
2023-05-11T01:21:41.885Z,14.84
2023-05-11T01:24:27.964Z,15.04
2023-05-11T01:27:29.080Z,15.18
2023-05-11T01:33:04.117Z,15.34
2023-05-11T01:35:36.457Z,15.41
2023-05-11T01:38:07.489Z,15.39
2023-05-11T01:40:37.206Z,15.29
2023-05-11T01:43:09.070Z,15.20
2023-05-11T01:45:40.213Z,15.16
2023-05-11T01:48:15.460Z,15.09
2023-05-11T01:50:43.922Z,15.34
2023-05-11T01:53:13.302Z,15.15
2023-05-11T01:55:42.936Z,15.22
2023-05-11T01:58:15.002Z,15.33
2023-05-11T02:00:44.269Z,15.29
2023-05-11T02:03:15.159Z,15.22
2023-05-11T02:05:44.909Z,15.36
2023-05-11T02:08:13.610Z,15.42
2023-05-11T02:10:42.800Z,15.39
2023-05-11T02:13:11.535Z,15.45
2023-05-11T02:15:42.213Z,15.40
2023-05-11T02:18:15.592Z,15.30
2023-05-11T02:20:44.335Z,15.22
2023-05-11T02:23:12.483Z,15.04
2023-05-11T02:25:41.833Z,15.04
2023-05-11T02:28:09.653Z,14.83
2023-05-11T02:30:45.720Z,14.82
2023-05-11T02:33:22.238Z,14.70
2023-05-11T02:35:52.400Z,14.61
2023-05-11T02:38:21.076Z,14.35
2023-05-11T02:40:54.316Z,14.33
2023-05-11T02:43:25.697Z,14.44
2023-05-11T02:46:00.165Z,14.49
2023-05-11T02:48:31.574Z,14.41
2023-05-11T02:51:02.116Z,14.43
2023-05-11T02:53:32.743Z,14.37
2023-05-11T02:56:02.138Z,14.31
2023-05-11T02:58:30.202Z,14.40
2023-05-11T03:00:58.691Z,14.52
2023-05-11T03:03:27.489Z,14.63
2023-05-11T03:05:56.671Z,14.68
2023-05-11T03:08:24.363Z,14.78
2023-05-11T03:10:54.315Z,14.87
2023-05-11T03:13:23.607Z,14.93
2023-05-11T03:15:53.461Z,14.84
2023-05-11T03:18:23.315Z,14.69
2023-05-11T03:20:51.910Z,14.68
2023-05-11T03:23:21.853Z,14.88
2023-05-11T03:25:50.297Z,14.96
2023-05-11T03:28:21.004Z,14.77
2023-05-11T03:30:50.930Z,14.70
2023-05-11T03:33:19.874Z,14.88
2023-05-11T03:35:50.909Z,14.92
2023-05-11T03:38:20.659Z,14.99
2023-05-11T03:40:51.180Z,15.01
2023-05-11T03:43:21.874Z,14.89
2023-05-11T03:45:52.547Z,14.94
2023-05-11T03:48:21.193Z,14.98
2023-05-11T03:50:50.108Z,14.89
2023-05-11T03:53:17.854Z,14.82
2023-05-11T03:55:45.624Z,14.79
2023-05-11T03:58:15.011Z,14.58
2023-05-11T04:00:44.025Z,14.53
2023-05-11T04:03:12.556Z,14.57
2023-05-11T04:05:40.509Z,14.71
2023-05-11T04:08:08.528Z,14.85
2023-05-11T04:10:36.296Z,14.83
2023-05-11T04:13:04.059Z,14.79
2023-05-11T04:15:33.308Z,14.67
2023-05-11T04:18:01.008Z,14.55
2023-05-11T04:20:28.705Z,14.47
2023-05-11T04:22:56.467Z,14.64
2023-05-11T04:25:24.141Z,14.76
2023-05-11T04:27:51.859Z,14.78
2023-05-11T04:30:20.697Z,14.68
2023-05-11T04:32:50.105Z,14.69
2023-05-11T04:35:18.339Z,14.56
2023-05-11T04:37:46.055Z,14.78
2023-05-11T04:40:14.296Z,14.47
2023-05-11T04:42:41.993Z,14.54
2023-05-11T04:45:10.574Z,14.39
2023-05-11T04:47:38.660Z,14.55
2023-05-11T04:50:08.651Z,14.60
2023-05-11T04:52:36.460Z,14.53
2023-05-11T04:55:04.449Z,14.51
2023-05-11T04:57:32.143Z,14.58
2023-05-11T04:59:59.898Z,14.18
2023-05-11T05:02:27.683Z,14.15
2023-05-11T05:04:55.464Z,13.87
2023-05-11T05:07:24.684Z,14.00
2023-05-11T05:09:52.412Z,14.18
2023-05-11T05:12:20.194Z,14.16
2023-05-11T05:14:47.913Z,14.25
2023-05-11T05:17:15.642Z,14.53
2023-05-11T05:19:43.379Z,14.67
2023-05-11T05:22:11.177Z,14.66
2023-05-11T05:24:40.371Z,14.72
2023-05-11T05:27:08.032Z,14.83
2023-05-11T05:29:35.692Z,14.89
2023-05-11T05:32:03.452Z,14.81
2023-05-11T05:34:31.133Z,14.87
2023-05-11T05:36:58.875Z,14.95
2023-05-11T05:39:26.595Z,14.51
2023-05-11T05:41:55.670Z,14.08
2023-05-11T05:44:23.445Z,14.49
2023-05-11T05:46:51.204Z,14.48
2023-05-11T05:49:18.901Z,14.66
2023-05-11T05:51:46.592Z,14.77
2023-05-11T05:54:14.316Z,14.96
2023-05-11T05:56:42.282Z,14.62
2023-05-11T05:59:13.131Z,14.93
2023-05-11T06:01:45.552Z,14.82
2023-05-11T06:04:13.562Z,14.30
2023-05-11T06:06:41.425Z,14.49
2023-05-11T06:09:09.355Z,15.05
2023-05-11T06:11:37.091Z,15.36
2023-05-11T06:14:04.927Z,15.41
2023-05-11T06:16:34.127Z,15.08
2023-05-11T06:19:01.986Z,15.10
2023-05-11T06:21:29.836Z,14.38
2023-05-11T06:23:57.526Z,14.45
2023-05-11T06:26:25.659Z,14.45
2023-05-11T06:28:53.384Z,15.16
2023-05-11T06:31:23.152Z,14.77
2023-05-11T06:33:52.288Z,14.38
2023-05-11T06:36:20.058Z,14.82
2023-05-11T06:38:47.751Z,14.56
2023-05-11T06:41:15.500Z,14.48
2023-05-11T06:43:43.265Z,14.45
2023-05-11T06:46:16.224Z,14.45
2023-05-11T06:48:44.070Z,14.98
2023-05-11T06:51:13.710Z,15.53
2023-05-11T06:53:41.465Z,15.20
2023-05-11T06:56:09.292Z,15.59
2023-05-11T06:58:36.967Z,15.49
2023-05-11T07:01:07.693Z,15.63
2023-05-11T07:03:35.817Z,15.03
2023-05-11T07:06:03.705Z,15.31
2023-05-11T07:08:33.781Z,15.21
2023-05-11T07:11:01.527Z,15.41
2023-05-11T07:13:29.329Z,15.32
2023-05-11T07:15:57.785Z,15.42
2023-05-11T07:18:25.917Z,15.18
2023-05-11T07:20:53.663Z,15.27
2023-05-11T07:23:21.557Z,15.33
2023-05-11T07:25:51.012Z,15.20
2023-05-11T07:28:18.730Z,14.99
2023-05-11T07:30:46.658Z,15.37
2023-05-11T07:33:14.391Z,15.52
2023-05-11T07:35:42.105Z,15.09
2023-05-11T07:38:11.824Z,15.77
2023-05-11T07:40:39.708Z,15.71
2023-05-11T07:43:08.793Z,15.75
2023-05-11T07:45:37.133Z,15.73
2023-05-11T07:48:05.062Z,15.80
2023-05-11T07:50:33.068Z,15.69
2023-05-11T07:53:00.743Z,15.43
2023-05-11T07:55:30.566Z,15.52
2023-05-11T07:57:58.610Z,15.31
2023-05-11T08:00:28.089Z,15.90
2023-05-11T08:02:56.680Z,16.02
2023-05-11T08:05:24.717Z,16.79
2023-05-11T08:07:52.461Z,16.19
2023-05-11T08:10:20.303Z,16.39
2023-05-11T08:12:48.076Z,16.08
2023-05-11T08:15:15.951Z,16.01
2023-05-11T08:17:46.152Z,16.56
2023-05-11T08:20:14.486Z,16.66
2023-05-11T08:22:42.323Z,16.98
2023-05-11T08:25:10.614Z,17.44
2023-05-11T08:27:38.347Z,17.61
2023-05-11T08:30:08.940Z,17.66
2023-05-11T08:32:54.551Z,17.75
2023-05-11T08:35:27.537Z,17.68
2023-05-11T08:37:55.258Z,17.41
2023-05-11T08:40:24.966Z,17.76
2023-05-11T08:42:56.727Z,17.81
2023-05-11T08:45:24.894Z,17.40
2023-05-11T08:47:53.215Z,17.94
2023-05-11T08:50:21.606Z,17.54
2023-05-11T08:52:50.788Z,18.30
2023-05-11T08:55:18.775Z,18.06
2023-05-11T08:57:47.917Z,17.96
2023-05-11T09:00:17.483Z,18.63
2023-05-11T09:02:45.541Z,18.19
2023-05-11T09:05:14.889Z,18.14
2023-05-11T09:07:45.213Z,18.08
2023-05-11T09:10:14.659Z,16.93
2023-05-11T09:12:42.350Z,17.28
2023-05-11T09:15:11.087Z,17.41
2023-05-11T09:17:38.951Z,17.79
2023-05-11T09:20:09.376Z,17.56
2023-05-11T09:22:44.957Z,17.50
2023-05-11T09:25:16.993Z,17.71
2023-05-11T09:27:46.324Z,17.20
2023-05-11T09:30:22.132Z,17.81
2023-05-11T09:32:51.946Z,18.62
2023-05-11T09:35:21.321Z,18.33
2023-05-11T09:38:02.373Z,18.72
2023-05-11T09:40:34.122Z,18.20
2023-05-11T09:43:03.355Z,19.34
2023-05-11T09:45:39.199Z,19.24
2023-05-11T09:48:08.881Z,17.87
2023-05-11T09:50:37.389Z,18.24
2023-05-11T09:53:05.197Z,18.67
2023-05-11T09:55:34.399Z,18.90
2023-05-11T09:58:02.623Z,18.59
2023-05-11T10:00:30.663Z,18.52
2023-05-11T10:03:03.174Z,18.69
2023-05-11T10:05:32.783Z,19.34
2023-05-11T10:08:01.592Z,17.69
2023-05-11T10:10:30.509Z,18.56
2023-05-11T10:13:01.625Z,19.09
2023-05-11T10:15:31.928Z,19.17
2023-05-11T10:18:01.400Z,19.45
2023-05-11T10:20:29.340Z,19.12
2023-05-11T10:22:57.094Z,18.81
2023-05-11T10:25:26.517Z,18.94
2023-05-11T10:27:55.698Z,18.81
2023-05-11T10:30:25.304Z,19.38
2023-05-11T10:32:54.769Z,19.16
2023-05-11T10:35:24.032Z,19.84
2023-05-11T10:37:51.812Z,20.07
2023-05-11T10:40:19.828Z,19.55
2023-05-11T10:43:18.271Z,18.92
2023-05-11T10:45:53.672Z,18.57
2023-05-11T10:49:04.187Z,19.24
2023-05-11T10:52:13.654Z,17.77
2023-05-11T10:54:50.081Z,18.34
2023-05-11T10:57:37.327Z,17.90
2023-05-11T11:00:31.159Z,18.74
2023-05-11T11:03:10.734Z,18.77
2023-05-11T11:05:39.131Z,18.52
2023-05-11T11:08:09.232Z,18.10
2023-05-11T11:10:39.667Z,16.96
2023-05-11T11:13:09.949Z,16.64
2023-05-11T11:16:16.573Z,16.48
2023-05-11T11:18:45.950Z,16.84
2023-05-11T11:21:15.854Z,16.76
2023-05-11T11:23:51.183Z,17.40
2023-05-11T11:26:47.322Z,17.08
2023-05-11T11:29:15.376Z,16.58
2023-05-11T11:31:43.595Z,15.90
2023-05-11T11:34:36.511Z,15.28
2023-05-11T11:37:06.266Z,15.10
2023-05-11T11:40:13.999Z,15.49
2023-05-11T11:42:44.304Z,15.87
2023-05-11T11:45:32.239Z,16.03
2023-05-11T11:48:14.232Z,16.34
2023-05-11T11:50:45.623Z,16.68
2023-05-11T11:53:34.795Z,16.97
2023-05-11T11:56:02.535Z,17.36
2023-05-11T11:58:59.208Z,17.76
2023-05-11T12:01:29.624Z,17.73
2023-05-11T12:04:22.093Z,18.07
2023-05-11T12:06:58.361Z,18.64
2023-05-11T12:09:27.174Z,18.70
2023-05-11T12:11:55.088Z,18.97
2023-05-11T12:14:23.239Z,18.90
2023-05-11T12:17:15.990Z,19.64
2023-05-11T12:19:46.836Z,19.57
2023-05-11T12:22:16.437Z,18.84
2023-05-11T12:24:44.253Z,18.72
2023-05-11T12:27:12.043Z,18.52
2023-05-11T12:29:41.388Z,18.49
2023-05-11T12:32:14.027Z,18.27
2023-05-11T12:34:41.884Z,18.21
2023-05-11T12:37:09.637Z,18.16
2023-05-11T12:39:39.592Z,18.45
2023-05-11T12:42:07.696Z,18.87
2023-05-11T12:44:35.483Z,18.88
2023-05-11T12:47:03.395Z,18.55
2023-05-11T12:49:31.167Z,19.49
2023-05-11T12:52:07.723Z,19.33
2023-05-11T12:54:39.060Z,19.21
2023-05-11T12:57:08.662Z,18.81
2023-05-11T12:59:38.436Z,18.45
2023-05-11T13:02:14.808Z,18.05
2023-05-11T13:04:44.045Z,18.32
2023-05-11T13:07:13.165Z,17.59
2023-05-11T13:09:42.712Z,17.73
2023-05-11T13:12:12.255Z,17.62
2023-05-11T13:14:40.152Z,17.93
2023-05-11T13:17:08.519Z,18.37
2023-05-11T13:19:37.572Z,17.83
2023-05-11T13:22:05.777Z,17.98
2023-05-11T13:24:34.544Z,18.70
2023-05-11T13:27:04.007Z,18.59
2023-05-11T13:29:31.767Z,18.52
2023-05-11T13:31:59.498Z,18.85
2023-05-11T13:34:27.279Z,18.74
2023-05-11T13:36:55.069Z,18.45
2023-05-11T13:39:22.791Z,18.10
2023-05-11T13:41:50.511Z,17.44
2023-05-11T13:44:19.598Z,17.53
2023-05-11T13:46:47.513Z,17.76
2023-05-11T13:49:15.459Z,16.82
2023-05-11T13:51:43.176Z,16.50
2023-05-11T13:54:10.941Z,16.80
2023-05-11T13:56:38.688Z,16.45
2023-05-11T13:59:07.163Z,17.34
2023-05-11T14:01:36.529Z,17.15
2023-05-11T14:04:04.309Z,16.98
2023-05-11T14:06:35.315Z,17.94
2023-05-11T14:09:03.015Z,17.38
2023-05-11T14:11:30.887Z,17.06
2023-05-11T14:13:58.545Z,16.91
2023-05-11T14:16:26.324Z,17.10
2023-05-11T14:18:55.488Z,17.19
2023-05-11T14:21:23.380Z,17.93
2023-05-11T14:24:09.800Z,18.30
2023-05-11T14:26:38.576Z,17.53
2023-05-11T14:29:06.331Z,17.98
2023-05-11T14:31:35.426Z,17.38
2023-05-11T14:34:05.262Z,17.21
2023-05-11T14:36:33.083Z,17.17
2023-05-11T14:39:00.830Z,17.35
2023-05-11T14:41:28.620Z,18.56
2023-05-11T14:43:56.439Z,18.21
2023-05-11T14:46:26.696Z,19.04
2023-05-11T14:48:55.005Z,19.01
2023-05-11T14:51:24.209Z,18.80
2023-05-11T14:53:52.178Z,18.68
2023-05-11T14:56:20.152Z,18.52
2023-05-11T14:58:47.915Z,18.37
2023-05-11T15:01:15.693Z,18.73
2023-05-11T15:03:43.662Z,19.13
2023-05-11T15:06:11.471Z,19.03
2023-05-11T15:08:40.673Z,20.39
2023-05-11T15:11:08.392Z,20.20
2023-05-11T15:13:36.198Z,19.26
2023-05-11T15:16:04.005Z,18.95
2023-05-11T15:18:31.816Z,18.93
2023-05-11T15:20:59.629Z,19.85
2023-05-11T15:23:27.427Z,20.93
2023-05-11T15:25:58.581Z,21.15
2023-05-11T15:28:26.665Z,21.70
2023-05-11T15:30:54.372Z,21.12
2023-05-11T15:33:22.106Z,21.33
2023-05-11T15:35:50.506Z,21.51
2023-05-11T15:38:19.560Z,21.59
2023-05-11T15:40:47.539Z,21.70
2023-05-11T15:43:16.805Z,21.43
2023-05-11T15:45:44.834Z,21.23
2023-05-11T15:48:13.428Z,21.54
2023-05-11T15:50:41.192Z,21.06
2023-05-11T15:53:08.899Z,21.71
2023-05-11T15:55:36.949Z,21.29
2023-05-11T15:58:07.918Z,21.27
2023-05-11T16:00:37.451Z,21.92
2023-05-11T16:03:07.070Z,22.06
2023-05-11T16:05:35.093Z,22.01
2023-05-11T16:08:02.853Z,20.46
2023-05-11T16:10:30.766Z,20.40
2023-05-11T16:12:58.991Z,20.02
2023-05-11T16:15:26.987Z,19.84
2023-05-11T16:17:56.480Z,20.07
2023-05-11T16:20:24.387Z,19.39
2023-05-11T16:22:52.218Z,19.57
2023-05-11T16:25:19.961Z,19.57
2023-05-11T16:27:47.740Z,19.51
2023-05-11T16:30:24.309Z,19.41
2023-05-11T16:32:53.611Z,19.26
2023-05-11T16:35:22.958Z,18.91
2023-05-11T16:37:50.742Z,19.21
2023-05-11T16:40:21.397Z,19.32
2023-05-11T16:42:49.538Z,19.47
2023-05-11T16:45:17.693Z,19.41
2023-05-11T16:47:46.145Z,19.24
2023-05-11T16:50:15.808Z,19.42
2023-05-11T16:52:45.141Z,19.63
2023-05-11T16:55:16.000Z,19.18
2023-05-11T16:57:44.669Z,19.56
2023-05-11T17:00:13.475Z,19.55
2023-05-11T17:02:41.744Z,19.71
2023-05-11T17:05:11.382Z,19.79
2023-05-11T17:07:39.223Z,19.59
2023-05-11T17:10:10.102Z,19.62
2023-05-11T17:12:37.824Z,19.86
2023-05-11T17:15:09.599Z,19.60
2023-05-11T17:17:37.912Z,19.48
2023-05-11T17:20:07.461Z,19.57
2023-05-11T17:22:36.011Z,19.33
2023-05-11T17:25:03.884Z,19.40
2023-05-11T17:27:33.312Z,19.17
2023-05-11T17:30:01.036Z,19.21
2023-05-11T17:32:29.543Z,19.07
2023-05-11T17:34:57.553Z,18.93
2023-05-11T17:37:31.750Z,19.28
2023-05-11T17:40:01.015Z,19.64
2023-05-11T17:42:29.321Z,19.82
2023-05-11T17:44:58.613Z,19.61
2023-05-11T17:47:26.729Z,19.11
2023-05-11T17:49:54.483Z,18.54
2023-05-11T17:52:25.129Z,18.80
2023-05-11T17:54:53.263Z,18.90
2023-05-11T17:57:23.100Z,18.86
2023-05-11T17:59:50.852Z,18.63
2023-05-11T18:02:20.065Z,18.75
2023-05-11T18:04:47.874Z,18.49
2023-05-11T18:07:15.786Z,18.62
2023-05-11T18:09:44.583Z,18.27
2023-05-11T18:12:12.617Z,18.40
2023-05-11T18:14:40.301Z,18.39
2023-05-11T18:17:08.052Z,18.70
2023-05-11T18:19:37.134Z,18.97
2023-05-11T18:22:04.970Z,19.01
2023-05-11T18:24:32.698Z,18.92
2023-05-11T18:27:00.389Z,18.85
2023-05-11T18:29:28.144Z,18.63
2023-05-11T18:31:56.080Z,18.50
2023-05-11T18:34:24.130Z,18.33
2023-05-11T18:36:53.248Z,18.49
2023-05-11T18:39:20.946Z,18.49
2023-05-11T18:41:48.690Z,18.40
2023-05-11T18:44:18.357Z,18.42
2023-05-11T18:46:46.232Z,18.15
2023-05-11T18:49:14.068Z,18.19
2023-05-11T18:51:41.773Z,18.17
2023-05-11T18:54:10.981Z,18.03
2023-05-11T18:56:38.717Z,18.03
2023-05-11T18:59:06.779Z,17.92
2023-05-11T19:01:46.504Z,17.99
2023-05-11T19:04:17.667Z,17.88
2023-05-11T19:06:45.402Z,17.81
2023-05-11T19:09:14.453Z,17.55
2023-05-11T19:11:42.944Z,17.58
2023-05-11T19:14:12.319Z,17.41
2023-05-11T19:16:40.060Z,17.13
2023-05-11T19:19:07.853Z,17.16
2023-05-11T19:21:39.909Z,17.05
2023-05-11T19:24:08.239Z,17.02
2023-05-11T19:26:38.221Z,16.66
2023-05-11T19:29:06.134Z,16.49
2023-05-11T19:31:33.978Z,16.87
2023-05-11T19:34:02.721Z,16.85
2023-05-11T19:36:30.553Z,16.78
2023-05-11T19:38:58.278Z,16.66
2023-05-11T19:41:26.068Z,16.68
2023-05-11T19:43:55.131Z,16.39
2023-05-11T19:46:23.324Z,16.61
2023-05-11T19:48:51.026Z,16.71
2023-05-11T19:51:19.006Z,16.25
2023-05-11T19:53:46.743Z,16.18
2023-05-11T19:56:14.591Z,16.01
2023-05-11T19:58:42.386Z,16.01
2023-05-11T20:01:11.560Z,15.85
2023-05-11T20:03:39.389Z,15.94
2023-05-11T20:06:07.269Z,15.94
2023-05-11T20:08:34.995Z,16.03
2023-05-11T20:11:02.676Z,16.18
2023-05-11T20:13:31.077Z,16.08
2023-05-11T20:15:59.501Z,16.14
2023-05-11T20:18:28.653Z,15.84
2023-05-11T20:20:56.418Z,15.64
2023-05-11T20:23:24.442Z,15.82
2023-05-11T20:25:52.118Z,15.96
2023-05-11T20:28:21.449Z,15.87
2023-05-11T20:30:49.153Z,15.75
2023-05-11T20:35:49.623Z,15.68
2023-05-11T20:38:18.090Z,15.13
2023-05-11T20:40:45.871Z,15.28
2023-05-11T20:43:14.852Z,15.23
2023-05-11T20:45:43.592Z,15.23
2023-05-11T20:48:11.520Z,15.17
2023-05-11T20:50:39.852Z,15.24
2023-05-11T20:53:09.052Z,15.21
2023-05-11T20:55:36.769Z,15.28
2023-05-11T20:58:05.221Z,14.87
2023-05-11T21:00:32.970Z,14.98
2023-05-11T21:03:00.827Z,15.21
2023-05-11T21:05:28.875Z,14.95
2023-05-11T21:07:57.160Z,14.69
2023-05-11T21:10:26.222Z,14.79
2023-05-11T21:12:53.957Z,14.75
2023-05-11T21:15:21.769Z,14.84
2023-05-11T21:17:49.484Z,14.79
2023-05-11T21:20:17.507Z,14.90
2023-05-11T21:22:45.426Z,14.98
2023-05-11T21:25:13.412Z,14.94
2023-05-11T21:27:42.716Z,14.96
2023-05-11T21:30:11.101Z,14.92
2023-05-11T21:32:38.847Z,14.45
2023-05-11T21:35:07.288Z,14.45
2023-05-11T21:37:35.719Z,14.47
2023-05-11T21:40:03.880Z,14.42
2023-05-11T21:42:34.927Z,14.18
2023-05-11T21:45:04.525Z,13.98
2023-05-11T21:47:32.291Z,13.95
2023-05-11T21:50:00.209Z,13.87
2023-05-11T21:52:28.021Z,13.81
2023-05-11T21:54:55.688Z,13.93
2023-05-11T21:57:23.449Z,13.93
2023-05-11T21:59:51.375Z,13.89
2023-05-11T22:02:20.504Z,13.82
2023-05-11T22:04:48.674Z,13.87
2023-05-11T22:07:16.399Z,13.83
2023-05-11T22:09:44.074Z,13.87
2023-05-11T22:12:11.833Z,14.00
2023-05-11T22:14:39.602Z,14.08
2023-05-11T22:17:07.628Z,14.11
2023-05-11T22:19:36.725Z,14.19
2023-05-11T22:22:04.589Z,14.23
2023-05-11T22:24:32.279Z,14.16
2023-05-11T22:27:01.177Z,14.09
2023-05-11T22:29:28.862Z,13.99
2023-05-11T22:31:56.624Z,13.81
2023-05-11T22:34:24.423Z,13.76
2023-05-11T22:36:53.712Z,13.71
2023-05-11T22:39:21.713Z,13.62
2023-05-11T22:41:49.457Z,13.72
2023-05-11T22:44:17.723Z,13.74
2023-05-11T22:46:45.480Z,13.59
2023-05-11T22:49:13.196Z,13.74
2023-05-11T22:51:40.862Z,13.91
2023-05-11T22:54:10.040Z,13.76
2023-05-11T22:56:39.069Z,13.70
2023-05-11T22:59:06.756Z,13.56
2023-05-11T23:01:34.771Z,13.55
2023-05-11T23:04:02.731Z,13.30
2023-05-11T23:06:30.771Z,13.20
2023-05-11T23:08:58.524Z,13.08
2023-05-11T23:11:27.616Z,13.23
2023-05-11T23:13:55.345Z,13.36
2023-05-11T23:16:23.088Z,13.43
2023-05-11T23:18:51.012Z,13.46
2023-05-11T23:21:18.877Z,13.61
2023-05-11T23:23:46.627Z,13.51
2023-05-11T23:26:14.499Z,13.40
2023-05-11T23:28:43.579Z,13.44
2023-05-11T23:31:11.515Z,13.58
2023-05-11T23:33:39.261Z,13.49
2023-05-11T23:36:07.921Z,13.46
2023-05-11T23:38:35.618Z,13.43
2023-05-11T23:41:03.340Z,13.37
2023-05-11T23:43:31.483Z,13.33
2023-05-11T23:46:02.367Z,13.56
2023-05-11T23:48:30.180Z,13.16
2023-05-11T23:50:57.969Z,13.13
2023-05-11T23:53:25.648Z,13.07
2023-05-11T23:55:53.429Z,12.82
2023-05-11T23:58:21.252Z,13.33
